createdAt,value
2022-12-28T00:02:15.317Z,6.86
2022-12-28T00:04:43.445Z,6.88
2022-12-28T00:07:11.643Z,6.90
2022-12-28T00:09:39.810Z,6.91
2022-12-28T00:12:09.389Z,6.87
2022-12-28T00:14:37.598Z,6.80
2022-12-28T00:17:05.730Z,6.76
2022-12-28T00:19:33.783Z,6.80
2022-12-28T00:22:02.017Z,6.82
2022-12-28T00:24:30.051Z,6.87
2022-12-28T00:26:58.142Z,6.89
2022-12-28T00:29:27.671Z,6.87
2022-12-28T00:31:56.313Z,6.92
2022-12-28T00:34:25.653Z,6.96
2022-12-28T00:37:08.386Z,6.97
2022-12-28T00:39:41.784Z,7.00
2022-12-28T00:42:10.372Z,7.00
2022-12-28T00:44:40.512Z,7.05
2022-12-28T00:47:08.997Z,7.07
2022-12-28T00:49:37.233Z,7.06
2022-12-28T00:52:06.040Z,7.01
2022-12-28T00:54:34.349Z,6.97
2022-12-28T00:57:04.077Z,6.99
2022-12-28T00:59:32.589Z,6.99
2022-12-28T01:02:02.450Z,6.98
2022-12-28T01:04:30.630Z,6.98
2022-12-28T01:06:58.708Z,6.94
2022-12-28T01:09:26.756Z,6.95
2022-12-28T01:11:56.079Z,7.04
2022-12-28T01:14:24.414Z,7.05
2022-12-28T01:16:52.496Z,7.06
2022-12-28T01:19:23.997Z,7.08
2022-12-28T01:21:53.211Z,7.08
2022-12-28T01:24:21.548Z,7.05
2022-12-28T01:26:49.633Z,7.05
2022-12-28T01:29:18.964Z,7.13
2022-12-28T01:31:47.030Z,7.13
2022-12-28T01:34:15.209Z,7.04
2022-12-28T01:36:44.621Z,7.01
2022-12-28T01:39:12.667Z,7.09
2022-12-28T01:41:43.580Z,7.08
2022-12-28T01:44:44.168Z,7.04
2022-12-28T01:47:20.654Z,7.01
2022-12-28T01:49:58.244Z,7.02
2022-12-28T01:52:35.601Z,7.04
2022-12-28T01:55:10.406Z,7.02
2022-12-28T01:57:48.152Z,7.10
2022-12-28T02:00:18.585Z,7.05
2022-12-28T02:02:53.432Z,7.14
2022-12-28T02:05:24.791Z,7.18
2022-12-28T02:08:00.834Z,7.28
2022-12-28T02:10:41.029Z,7.19
2022-12-28T02:15:45.466Z,7.20
2022-12-28T02:18:15.385Z,7.29
2022-12-28T02:21:08.314Z,7.24
2022-12-28T02:24:07.880Z,7.26
2022-12-28T02:26:55.705Z,7.23
2022-12-28T02:29:48.034Z,7.25
2022-12-28T02:32:55.621Z,7.23
2022-12-28T02:35:35.335Z,7.25
2022-12-28T02:38:11.573Z,7.31
2022-12-28T02:40:45.920Z,7.36
2022-12-28T02:43:14.738Z,7.38
2022-12-28T02:46:03.557Z,7.49
2022-12-28T02:48:59.100Z,7.53
2022-12-28T02:52:03.384Z,7.59
2022-12-28T02:55:15.709Z,7.59
2022-12-28T02:58:05.427Z,7.65
2022-12-28T03:00:50.088Z,7.69
2022-12-28T03:03:31.547Z,7.60
2022-12-28T03:06:33.037Z,7.61
2022-12-28T03:09:10.766Z,7.65
2022-12-28T03:11:45.275Z,7.68
2022-12-28T03:14:19.580Z,7.61
2022-12-28T03:17:11.693Z,7.72
2022-12-28T03:20:04.869Z,7.69
2022-12-28T03:22:55.517Z,7.66
2022-12-28T03:25:49.654Z,7.68
2022-12-28T03:28:43.995Z,7.66
2022-12-28T03:31:17.314Z,7.62
2022-12-28T03:34:06.522Z,7.69
2022-12-28T03:36:49.026Z,7.69
2022-12-28T03:39:31.360Z,7.76
2022-12-28T03:42:23.425Z,7.79
2022-12-28T03:45:00.176Z,7.75
2022-12-28T03:47:32.108Z,7.81
2022-12-28T03:50:01.888Z,7.89
2022-12-28T03:52:30.263Z,7.88
2022-12-28T03:54:58.557Z,7.90
2022-12-28T03:57:26.628Z,7.94
2022-12-28T03:59:55.198Z,7.96
2022-12-28T04:02:24.451Z,7.98
2022-12-28T04:04:53.098Z,8.00
2022-12-28T04:07:22.500Z,8.03
2022-12-28T04:09:50.487Z,8.02
2022-12-28T04:12:18.533Z,8.11
2022-12-28T04:15:13.390Z,8.04
2022-12-28T04:17:41.417Z,8.07
2022-12-28T04:20:12.610Z,8.08
2022-12-28T04:22:42.088Z,8.07
2022-12-28T04:25:10.664Z,8.01
2022-12-28T04:27:38.754Z,8.10
2022-12-28T04:30:14.478Z,8.19
2022-12-28T04:32:42.590Z,8.14
2022-12-28T04:35:10.893Z,8.22
2022-12-28T04:37:48.189Z,8.26
2022-12-28T04:40:16.475Z,8.30
2022-12-28T04:42:44.486Z,8.20
2022-12-28T04:45:15.789Z,8.29
2022-12-28T04:47:48.058Z,8.26
2022-12-28T04:50:16.059Z,8.32
2022-12-28T04:52:44.875Z,8.28
2022-12-28T04:55:32.925Z,8.35
2022-12-28T04:58:01.984Z,8.37
2022-12-28T05:00:30.216Z,8.33
2022-12-28T05:02:59.784Z,8.32
2022-12-28T05:05:28.850Z,8.41
2022-12-28T05:07:57.148Z,8.41
2022-12-28T05:10:26.477Z,8.45
2022-12-28T05:12:55.755Z,8.40
2022-12-28T05:15:23.951Z,8.45
2022-12-28T05:17:52.626Z,8.41
2022-12-28T05:20:20.648Z,8.45
2022-12-28T05:22:48.709Z,8.40
2022-12-28T05:25:17.037Z,8.39
2022-12-28T05:27:46.372Z,8.44
2022-12-28T05:30:14.508Z,8.44
2022-12-28T05:32:42.520Z,8.47
2022-12-28T05:35:11.095Z,8.46
2022-12-28T05:37:39.164Z,8.40
2022-12-28T05:40:08.994Z,8.41
2022-12-28T05:42:37.489Z,8.36
2022-12-28T05:45:08.590Z,8.38
2022-12-28T05:47:36.649Z,8.45
2022-12-28T05:50:05.311Z,8.40
2022-12-28T05:52:33.346Z,8.34
2022-12-28T05:55:01.309Z,8.38
2022-12-28T05:57:29.355Z,8.35
2022-12-28T05:59:57.403Z,8.27
2022-12-28T06:02:27.700Z,8.21
2022-12-28T06:04:56.072Z,8.29
2022-12-28T06:07:24.154Z,8.27
2022-12-28T06:09:52.228Z,8.21
2022-12-28T06:12:20.277Z,8.22
2022-12-28T06:14:48.396Z,8.27
2022-12-28T06:17:16.458Z,8.20
2022-12-28T06:19:45.807Z,8.19
2022-12-28T06:22:13.804Z,8.14
2022-12-28T06:24:41.916Z,8.19
2022-12-28T06:27:09.887Z,8.27
2022-12-28T06:29:37.950Z,8.22
2022-12-28T06:32:06.259Z,8.33
2022-12-28T06:34:34.282Z,8.30
2022-12-28T06:37:04.195Z,8.19
2022-12-28T06:39:32.180Z,8.18
2022-12-28T06:42:00.212Z,8.14
2022-12-28T06:44:28.256Z,8.18
2022-12-28T06:46:56.267Z,8.18
2022-12-28T06:49:24.287Z,8.19
2022-12-28T06:51:52.484Z,8.17
2022-12-28T06:54:21.834Z,8.17
2022-12-28T06:56:49.813Z,8.17
2022-12-28T06:59:17.868Z,8.19
2022-12-28T07:01:46.070Z,8.25
2022-12-28T07:04:14.526Z,8.21
2022-12-28T07:06:44.742Z,8.24
2022-12-28T07:09:15.972Z,8.26
2022-12-28T07:11:46.320Z,8.29
2022-12-28T07:14:14.428Z,8.26
2022-12-28T07:16:42.908Z,8.29
2022-12-28T07:19:11.405Z,8.29
2022-12-28T07:21:40.779Z,8.29
2022-12-28T07:24:10.175Z,8.32
2022-12-28T07:26:39.748Z,8.35
2022-12-28T07:29:10.495Z,8.35
2022-12-28T07:31:45.243Z,8.40
2022-12-28T07:34:15.090Z,8.33
2022-12-28T07:36:43.666Z,8.32
2022-12-28T07:39:11.768Z,8.34
2022-12-28T07:41:39.789Z,8.33
2022-12-28T07:44:09.270Z,8.34
2022-12-28T07:46:39.030Z,8.41
2022-12-28T07:49:07.690Z,8.44
2022-12-28T07:51:38.368Z,8.46
2022-12-28T07:54:07.618Z,8.50
2022-12-28T07:59:06.444Z,8.51
2022-12-28T08:01:37.697Z,8.53
2022-12-28T08:04:09.001Z,8.52
2022-12-28T08:06:40.272Z,8.55
2022-12-28T08:09:10.641Z,8.60
2022-12-28T08:11:42.029Z,8.62
2022-12-28T08:14:11.408Z,8.61
2022-12-28T08:16:42.946Z,8.60
2022-12-28T08:19:12.042Z,8.60
2022-12-28T08:21:44.526Z,8.58
2022-12-28T08:24:16.460Z,8.60
2022-12-28T08:26:45.404Z,8.63
2022-12-28T08:29:17.083Z,8.62
2022-12-28T08:31:47.326Z,8.63
2022-12-28T08:34:17.937Z,8.62
2022-12-28T08:36:46.142Z,8.65
2022-12-28T08:39:14.672Z,8.71
2022-12-28T08:41:43.052Z,8.61
2022-12-28T08:44:11.026Z,8.59
2022-12-28T08:46:40.458Z,8.68
2022-12-28T08:49:09.970Z,8.71
2022-12-28T08:51:41.349Z,8.67
2022-12-28T08:54:34.459Z,8.63
2022-12-28T08:57:02.483Z,8.65
2022-12-28T08:59:30.510Z,8.79
2022-12-28T09:01:58.564Z,8.66
2022-12-28T09:04:27.955Z,8.72
2022-12-28T09:06:56.012Z,8.81
2022-12-28T09:09:24.031Z,8.87
2022-12-28T09:11:52.010Z,8.90
2022-12-28T09:14:23.730Z,8.97
2022-12-28T09:16:53.847Z,9.01
2022-12-28T09:19:22.804Z,9.00
2022-12-28T09:21:53.729Z,9.10
2022-12-28T09:24:22.092Z,9.11
2022-12-28T09:26:52.452Z,9.15
2022-12-28T09:29:21.831Z,9.19
2022-12-28T09:31:50.026Z,9.16
2022-12-28T09:37:09.003Z,9.18
2022-12-28T09:39:37.511Z,9.20
2022-12-28T09:42:13.244Z,9.26
2022-12-28T09:45:00.525Z,9.24
2022-12-28T09:47:36.243Z,9.26
2022-12-28T09:50:28.511Z,9.19
2022-12-28T09:53:17.444Z,9.31
2022-12-28T09:55:55.781Z,9.40
2022-12-28T09:58:24.172Z,9.50
2022-12-28T10:00:56.326Z,9.52
2022-12-28T10:03:27.910Z,9.56
2022-12-28T10:05:58.377Z,9.58
2022-12-28T10:08:29.661Z,9.46
2022-12-28T10:11:03.219Z,9.53
2022-12-28T10:13:54.760Z,9.70
2022-12-28T10:16:26.639Z,9.63
2022-12-28T10:18:54.997Z,9.74
2022-12-28T10:21:32.378Z,9.86
2022-12-28T10:24:31.502Z,9.90
2022-12-28T10:26:56.666Z,9.99
2022-12-28T10:29:26.821Z,10.09
2022-12-28T10:32:03.252Z,10.17
2022-12-28T10:34:34.211Z,10.33
2022-12-28T10:37:14.636Z,10.41
2022-12-28T10:39:54.283Z,10.54
2022-12-28T10:42:27.186Z,10.66
2022-12-28T10:45:02.789Z,10.75
2022-12-28T10:47:35.904Z,10.69
2022-12-28T10:52:58.783Z,10.76
2022-12-28T10:55:32.019Z,10.71
2022-12-28T10:58:30.278Z,10.87
2022-12-28T11:01:04.822Z,10.97
2022-12-28T11:03:36.775Z,11.04
2022-12-28T11:06:14.606Z,11.16
2022-12-28T11:08:44.900Z,11.15
2022-12-28T11:11:23.098Z,11.16
2022-12-28T11:13:57.323Z,11.13
2022-12-28T11:16:25.400Z,11.13
2022-12-28T11:18:54.132Z,11.15
2022-12-28T11:21:23.217Z,11.12
2022-12-28T11:23:53.128Z,11.08
2022-12-28T11:26:22.893Z,11.10
2022-12-28T11:28:52.998Z,11.23
2022-12-28T11:31:28.629Z,11.34
2022-12-28T11:34:02.406Z,11.45
2022-12-28T11:36:33.511Z,11.55
2022-12-28T11:39:47.620Z,11.59
2022-12-28T11:42:56.110Z,11.54
2022-12-28T11:45:57.313Z,11.63
2022-12-28T11:48:49.559Z,11.70
2022-12-28T11:51:20.051Z,11.85
2022-12-28T11:54:00.311Z,11.90
2022-12-28T11:56:59.577Z,11.87
2022-12-28T11:59:29.330Z,11.89
2022-12-28T12:01:59.896Z,11.91
2022-12-28T12:04:36.437Z,12.02
2022-12-28T12:07:48.286Z,12.01
2022-12-28T12:10:38.918Z,11.99
2022-12-28T12:13:48.764Z,11.96
2022-12-28T12:16:32.050Z,11.92
2022-12-28T12:19:00.975Z,12.06
2022-12-28T12:21:37.509Z,12.09
2022-12-28T12:24:33.485Z,12.05
2022-12-28T12:27:13.604Z,11.93
2022-12-28T12:29:48.628Z,12.11
2022-12-28T12:32:25.012Z,12.06
2022-12-28T12:34:57.176Z,12.11
2022-12-28T12:37:43.753Z,12.09
2022-12-28T12:40:46.953Z,12.08
2022-12-28T12:43:41.170Z,12.13
2022-12-28T12:47:05.900Z,12.16
2022-12-28T12:50:14.573Z,12.16
2022-12-28T12:52:54.264Z,12.16
2022-12-28T12:55:44.844Z,12.15
2022-12-28T12:58:23.427Z,12.14
2022-12-28T13:01:20.304Z,11.87
2022-12-28T13:03:50.895Z,11.91
2022-12-28T13:06:24.294Z,11.88
2022-12-28T13:08:59.069Z,11.83
2022-12-28T13:11:31.925Z,11.75
2022-12-28T13:13:59.999Z,11.66
2022-12-28T13:16:32.516Z,11.74
2022-12-28T13:19:04.538Z,11.65
2022-12-28T13:21:43.199Z,11.66
2022-12-28T13:24:22.112Z,11.62
2022-12-28T13:26:50.771Z,11.55
2022-12-28T13:29:21.986Z,11.63
2022-12-28T13:31:52.338Z,11.64
2022-12-28T13:34:25.356Z,11.65
2022-12-28T13:36:56.762Z,11.52
2022-12-28T13:39:26.521Z,11.51
2022-12-28T13:41:57.995Z,11.51
2022-12-28T13:44:43.295Z,11.46
2022-12-28T13:47:24.621Z,11.47
2022-12-28T13:49:59.934Z,11.51
2022-12-28T13:52:35.427Z,11.46
2022-12-28T13:55:32.471Z,11.46
2022-12-28T13:58:05.164Z,11.50
2022-12-28T14:00:34.952Z,11.42
2022-12-28T14:03:07.402Z,11.50
2022-12-28T14:05:37.100Z,11.40
2022-12-28T14:08:07.845Z,11.31
2022-12-28T14:10:36.773Z,11.26
2022-12-28T14:13:05.951Z,11.30
2022-12-28T14:15:41.106Z,11.25
2022-12-28T14:18:10.928Z,11.25
2022-12-28T14:20:49.663Z,11.35
2022-12-28T14:23:23.192Z,11.35
2022-12-28T14:25:52.764Z,11.33
2022-12-28T14:28:27.760Z,11.26
2022-12-28T14:30:57.513Z,11.29
2022-12-28T14:33:28.909Z,11.29
2022-12-28T14:36:01.988Z,11.36
2022-12-28T14:38:35.419Z,11.38
2022-12-28T14:41:05.183Z,11.38
2022-12-28T14:43:37.214Z,11.40
2022-12-28T14:46:17.581Z,11.30
2022-12-28T14:48:46.212Z,11.32
2022-12-28T14:51:31.623Z,11.33
2022-12-28T14:54:20.654Z,11.22
2022-12-28T14:56:54.673Z,11.28
2022-12-28T14:59:30.291Z,11.35
2022-12-28T15:01:58.707Z,11.32
2022-12-28T15:04:35.783Z,11.28
2022-12-28T15:07:06.813Z,11.24
2022-12-28T15:09:35.275Z,11.18
2022-12-28T15:12:14.683Z,11.19
2022-12-28T15:14:44.095Z,11.11
2022-12-28T15:17:12.127Z,11.11
2022-12-28T15:19:43.061Z,11.21
2022-12-28T15:22:13.417Z,11.23
2022-12-28T15:24:45.341Z,11.09
2022-12-28T15:27:13.752Z,11.17
2022-12-28T15:32:31.110Z,11.12
2022-12-28T15:34:59.119Z,11.13
2022-12-28T15:37:28.466Z,11.13
2022-12-28T15:39:56.530Z,11.08
2022-12-28T15:42:24.508Z,11.06
2022-12-28T15:44:53.765Z,11.04
2022-12-28T15:47:23.191Z,11.06
2022-12-28T15:49:51.196Z,11.04
2022-12-28T15:52:19.228Z,11.04
2022-12-28T15:54:48.630Z,11.03
2022-12-28T15:57:16.793Z,10.97
2022-12-28T15:59:44.787Z,11.01
2022-12-28T16:02:13.454Z,10.92
2022-12-28T16:04:42.068Z,10.99
2022-12-28T16:07:10.208Z,11.01
2022-12-28T16:09:38.397Z,11.04
2022-12-28T16:12:08.158Z,11.03
2022-12-28T16:14:36.180Z,11.05
2022-12-28T16:17:29.093Z,10.98
2022-12-28T16:19:57.249Z,10.90
2022-12-28T16:22:25.288Z,10.85
2022-12-28T16:24:53.309Z,10.94
2022-12-28T16:27:22.683Z,10.89
2022-12-28T16:29:55.335Z,10.95
2022-12-28T16:32:28.028Z,11.02
2022-12-28T16:34:56.094Z,11.01
2022-12-28T16:37:24.306Z,11.04
2022-12-28T16:39:52.329Z,11.03
2022-12-28T16:42:21.651Z,11.04
2022-12-28T16:44:50.774Z,10.97
2022-12-28T16:47:18.836Z,11.03
2022-12-28T16:49:46.849Z,11.02
2022-12-28T16:52:14.913Z,11.01
2022-12-28T16:54:42.912Z,10.94
2022-12-28T16:57:11.173Z,11.02
2022-12-28T16:59:40.527Z,10.96
2022-12-28T17:02:14.768Z,10.95
2022-12-28T17:04:44.235Z,10.91
2022-12-28T17:07:12.226Z,10.86
2022-12-28T17:09:45.343Z,10.94
2022-12-28T17:12:17.157Z,10.94
2022-12-28T17:14:46.538Z,10.84
2022-12-28T17:17:14.536Z,10.93
2022-12-28T17:19:42.559Z,10.97
2022-12-28T17:22:10.772Z,11.05
2022-12-28T17:24:41.150Z,11.02
2022-12-28T17:27:14.193Z,11.01
2022-12-28T17:29:46.817Z,10.93
2022-12-28T17:32:14.933Z,10.97
2022-12-28T17:34:43.168Z,11.01
2022-12-28T17:37:11.238Z,10.96
2022-12-28T17:39:40.634Z,11.03
2022-12-28T17:42:09.271Z,11.02
2022-12-28T17:44:37.493Z,11.02
2022-12-28T17:47:06.863Z,10.96
2022-12-28T17:49:35.205Z,11.03
2022-12-28T17:52:03.400Z,11.03
2022-12-28T17:54:31.673Z,11.01
2022-12-28T17:57:00.161Z,11.09
2022-12-28T17:59:28.349Z,11.06
2022-12-28T18:01:57.303Z,11.03
2022-12-28T18:04:26.993Z,10.99
2022-12-28T18:06:55.021Z,10.95
2022-12-28T18:09:27.633Z,10.98
2022-12-28T18:11:56.166Z,11.01
2022-12-28T18:14:24.371Z,11.04
2022-12-28T18:16:52.492Z,11.11
2022-12-28T18:19:21.096Z,11.13
2022-12-28T18:21:50.423Z,11.13
2022-12-28T18:24:20.775Z,11.17
2022-12-28T18:26:49.370Z,11.16
2022-12-28T18:29:17.438Z,11.15
2022-12-28T18:31:45.528Z,11.21
2022-12-28T18:34:13.678Z,11.16
2022-12-28T18:36:41.687Z,11.20
2022-12-28T18:39:11.077Z,11.27
2022-12-28T18:41:39.067Z,11.27
2022-12-28T18:44:07.805Z,11.24
2022-12-28T18:46:35.977Z,11.20
2022-12-28T18:49:04.348Z,11.21
2022-12-28T18:51:32.356Z,11.13
2022-12-28T18:54:00.526Z,11.10
2022-12-28T18:56:29.886Z,11.05
2022-12-28T18:58:59.269Z,11.00
2022-12-28T19:04:18.720Z,10.98
2022-12-28T19:06:47.460Z,11.01
2022-12-28T19:09:15.825Z,10.94
2022-12-28T19:11:45.432Z,10.89
2022-12-28T19:14:15.779Z,10.87
2022-12-28T19:16:44.955Z,10.89
2022-12-28T19:19:13.102Z,10.89
2022-12-28T19:21:42.933Z,10.88
2022-12-28T19:24:15.236Z,10.95
2022-12-28T19:26:45.382Z,10.91
2022-12-28T19:29:15.426Z,10.87
2022-12-28T19:31:43.577Z,10.92
2022-12-28T19:34:11.633Z,10.93
2022-12-28T19:36:41.034Z,10.90
2022-12-28T19:39:34.014Z,10.87
2022-12-28T19:42:28.092Z,10.92
2022-12-28T19:44:56.117Z,10.94
2022-12-28T19:47:26.303Z,10.96
2022-12-28T19:49:54.478Z,10.96
2022-12-28T19:52:22.536Z,11.01
2022-12-28T19:54:50.691Z,10.94
2022-12-28T19:57:22.429Z,11.02
2022-12-28T19:59:50.578Z,10.98
2022-12-28T20:02:18.844Z,10.95
2022-12-28T20:04:46.990Z,10.98
2022-12-28T20:07:15.131Z,10.94
2022-12-28T20:09:43.492Z,10.95
2022-12-28T20:12:12.182Z,10.92
2022-12-28T20:14:41.513Z,10.87
2022-12-28T20:17:09.519Z,10.90
2022-12-28T20:19:37.786Z,10.88
2022-12-28T20:22:05.958Z,10.87
2022-12-28T20:24:35.816Z,10.84
2022-12-28T20:27:03.863Z,10.87
2022-12-28T20:29:33.336Z,11.01
2022-12-28T20:32:02.788Z,11.25
2022-12-28T20:34:30.921Z,11.49
2022-12-28T20:36:58.915Z,11.72
2022-12-28T20:39:26.928Z,11.90
2022-12-28T20:42:12.379Z,12.10
2022-12-28T20:44:40.367Z,12.16
2022-12-28T20:47:10.016Z,12.16
2022-12-28T20:49:38.222Z,12.11
2022-12-28T20:52:06.398Z,12.17
2022-12-28T20:54:34.453Z,12.18
2022-12-28T20:57:02.454Z,12.31
2022-12-28T20:59:30.632Z,12.27
2022-12-28T21:01:58.791Z,12.26
2022-12-28T21:04:28.248Z,12.23
2022-12-28T21:06:57.402Z,12.19
2022-12-28T21:09:25.433Z,12.23
2022-12-28T21:11:53.499Z,12.24
2022-12-28T21:14:21.769Z,12.34
2022-12-28T21:16:49.907Z,12.32
2022-12-28T21:19:17.960Z,12.21
2022-12-28T21:21:49.276Z,12.15
2022-12-28T21:24:17.423Z,12.17
2022-12-28T21:26:45.505Z,12.31
2022-12-28T21:29:13.553Z,12.21
2022-12-28T21:31:41.619Z,12.16
2022-12-28T21:34:09.715Z,12.20
2022-12-28T21:36:37.922Z,12.16
2022-12-28T21:39:07.314Z,12.14
2022-12-28T21:41:50.997Z,12.29
2022-12-28T21:44:23.203Z,12.28
2022-12-28T21:46:52.640Z,12.30
2022-12-28T21:49:21.799Z,12.31
2022-12-28T21:51:50.170Z,12.39
2022-12-28T21:54:22.073Z,12.37
2022-12-28T21:56:54.121Z,12.38
2022-12-28T21:59:24.148Z,12.35
2022-12-28T22:02:10.620Z,12.01
2022-12-28T22:05:02.144Z,11.68
2022-12-28T22:07:32.195Z,11.53
2022-12-28T22:10:21.306Z,11.49
2022-12-28T22:12:49.337Z,11.29
2022-12-28T22:15:40.209Z,11.15
2022-12-28T22:18:37.019Z,11.15
2022-12-28T22:21:05.912Z,11.25
2022-12-28T22:23:35.090Z,11.22
2022-12-28T22:26:04.802Z,11.22
2022-12-28T22:28:32.843Z,11.24
2022-12-28T22:31:05.386Z,11.36
2022-12-28T22:33:33.513Z,11.27
2022-12-28T22:36:10.747Z,11.23
2022-12-28T22:38:38.863Z,11.21
2022-12-28T22:41:08.837Z,11.34
2022-12-28T22:43:36.961Z,11.34
2022-12-28T22:46:07.458Z,11.28
2022-12-28T22:48:35.767Z,11.41
2022-12-28T22:51:05.564Z,11.42
2022-12-28T22:53:35.354Z,11.42
2022-12-28T22:56:06.631Z,11.44
2022-12-28T22:58:36.058Z,11.37
2022-12-28T23:01:07.307Z,11.36
2022-12-28T23:03:35.767Z,11.40
2022-12-28T23:06:03.881Z,11.38
2022-12-28T23:08:31.894Z,11.42
2022-12-28T23:11:02.555Z,11.37
2022-12-28T23:13:33.461Z,11.26
2022-12-28T23:16:04.669Z,11.23
2022-12-28T23:18:52.756Z,11.29
2022-12-28T23:21:41.729Z,11.24
2022-12-28T23:24:30.854Z,11.24
2022-12-28T23:27:23.517Z,11.22
2022-12-28T23:29:51.952Z,11.21
2022-12-28T23:32:21.484Z,11.29
2022-12-28T23:34:50.496Z,11.32
2022-12-28T23:37:18.797Z,11.29
2022-12-28T23:39:46.803Z,11.26
2022-12-28T23:42:14.855Z,11.33
2022-12-28T23:44:45.987Z,11.32
2022-12-28T23:47:14.102Z,11.29
2022-12-28T23:49:43.457Z,11.35
2022-12-28T23:52:11.695Z,11.32
2022-12-28T23:54:39.886Z,11.33
2022-12-28T23:57:08.041Z,11.34
2022-12-28T23:59:36.259Z,11.34
